Time;durP1;ratioP1;P1;durP2;ratioP2;P2;SDS_P1;SDS_P2;PMS_P1;PMS_P2;Temp;Humidity;BMP_temperature;BMP_pressure;BME280_temperature;BME280_humidity;BME280_pressure;Samples;Min_cycle;Max_cycle;Signal;HPM_P1;HPM_P2
2023/08/25 00:03:59;;;;;;;3.75;1.50;;;28.50;79.70;;;;;;10489871;28;20135;-36
2023/08/25 00:09:01;;;;;;;2.63;1.38;;;28.60;78.70;;;;;;10481180;28;20470;-34
2023/08/25 00:14:03;;;;;;;3.30;1.55;;;28.70;78.30;;;;;;10483936;28;20044;-38
2023/08/25 00:19:06;;;;;;;2.17;1.30;;;28.70;77.80;;;;;;10472943;28;20389;-38
2023/08/25 00:24:08;;;;;;;2.75;1.67;;;28.70;77.50;;;;;;10484085;28;20041;-35
2023/08/25 00:29:10;;;;;;;2.00;1.30;;;28.70;77.40;;;;;;10469469;28;20079;-38
2023/08/25 00:34:13;;;;;;;3.10;1.40;;;28.60;77.60;;;;;;10484852;28;20048;-36
2023/08/25 00:39:15;;;;;;;3.53;1.40;;;28.60;77.20;;;;;;10477987;28;20052;-37
2023/08/25 00:44:17;;;;;;;4.75;1.23;;;28.70;77.30;;;;;;10489485;28;20552;-36
2023/08/25 00:49:21;;;;;;;2.42;1.10;;;28.60;77.10;;;;;;10483003;28;20454;-41
2023/08/25 00:54:26;;;;;;;3.30;1.20;;;28.60;77.00;;;;;;10481248;28;20080;-38
2023/08/25 00:59:28;;;;;;;3.10;1.40;;;28.60;76.90;;;;;;10475585;28;20044;-39
2023/08/25 01:04:31;;;;;;;1.58;1.15;;;28.60;76.80;;;;;;10459551;28;20127;-41
2023/08/25 01:09:34;;;;;;;3.13;0.90;;;28.20;79.10;;;;;;10476638;28;20405;-42
2023/08/25 01:14:43;;;;;;;1.95;1.10;;;28.50;78.30;;;;;;10483383;28;20048;-35
2023/08/25 01:19:54;;;;;;;1.17;0.90;;;28.50;77.90;;;;;;10474997;28;20414;-36
2023/08/25 01:25:05;;;;;;;3.63;1.30;;;28.40;78.00;;;;;;10485160;28;20048;-39
2023/08/25 01:30:10;;;;;;;3.45;1.20;;;28.50;77.20;;;;;;10483109;28;20098;-33
2023/08/25 01:35:14;;;;;;;1.23;1.10;;;28.50;76.90;;;;;;10473802;28;20485;-35
2023/08/25 01:40:21;;;;;;;1.20;1.10;;;28.50;77.00;;;;;;10487895;28;20554;-35
2023/08/25 01:45:25;;;;;;;1.65;0.95;;;28.50;77.00;;;;;;10488929;28;20083;-34
2023/08/25 01:50:28;;;;;;;4.20;1.20;;;28.50;76.70;;;;;;10489254;28;20099;-34
2023/08/25 01:55:30;;;;;;;2.13;1.20;;;28.50;76.80;;;;;;10486613;28;20451;-37
2023/08/25 02:00:33;;;;;;;2.35;1.08;;;28.50;76.70;;;;;;10487713;28;20472;-38
2023/08/25 02:05:35;;;;;;;3.35;1.27;;;28.40;76.60;;;;;;10496651;28;20076;-36
2023/08/25 02:10:37;;;;;;;2.38;1.17;;;28.50;76.80;;;;;;10491127;28;20044;-34
2023/08/25 02:15:44;;;;;;;0.98;0.82;;;28.40;76.70;;;;;;10487100;28;20123;-34
2023/08/25 02:20:46;;;;;;;0.93;0.80;;;28.40;76.70;;;;;;10483674;28;20052;-34
2023/08/25 02:25:48;;;;;;;2.13;1.20;;;28.40;76.60;;;;;;10491950;28;20058;-41
2023/08/25 02:30:51;;;;;;;1.10;1.00;;;28.40;77.20;;;;;;10463508;28;20136;-38
2023/08/25 02:35:53;;;;;;;1.08;0.77;;;28.40;76.60;;;;;;10495971;28;20064;-37
2023/08/25 02:40:58;;;;;;;2.22;1.13;;;28.30;76.70;;;;;;10478284;28;20142;-36
2023/08/25 02:46:01;;;;;;;2.83;1.30;;;28.30;76.70;;;;;;10489105;28;20604;-33
2023/08/25 02:51:02;;;;;;;2.53;1.20;;;28.30;76.70;;;;;;10477159;28;20472;-43
2023/08/25 02:56:04;;;;;;;2.30;1.30;;;28.30;76.70;;;;;;10494501;28;20145;-39
2023/08/25 03:15:30;;;;;;;3.40;1.10;;;28.00;77.30;;;;;;10556551;27;20105;-33
2023/08/25 03:20:32;;;;;;;2.75;1.00;;;28.20;77.40;;;;;;10543312;28;20072;-35
2023/08/25 03:25:38;;;;;;;1.27;0.85;;;28.20;77.10;;;;;;10564584;28;20476;-36
2023/08/25 03:30:41;;;;;;;2.90;1.17;;;28.20;76.90;;;;;;10539875;28;20060;-33
2023/08/25 03:35:43;;;;;;;2.40;1.20;;;28.20;76.80;;;;;;10551870;28;20447;-33
2023/08/25 03:40:44;;;;;;;3.15;1.10;;;28.20;77.40;;;;;;10566915;28;20063;-34
2023/08/25 03:45:48;;;;;;;2.70;1.00;;;28.20;77.40;;;;;;10553867;28;20044;-33
2023/08/25 03:50:49;;;;;;;3.08;1.33;;;28.20;76.70;;;;;;10551567;28;20072;-35
2023/08/25 03:55:52;;;;;;;2.65;1.45;;;28.20;76.80;;;;;;10546953;28;20119;-35
2023/08/25 04:00:56;;;;;;;2.08;1.30;;;28.20;76.70;;;;;;10555077;28;20044;-33
2023/08/25 04:05:57;;;;;;;3.53;1.27;;;28.20;76.60;;;;;;10554016;28;20119;-34
2023/08/25 04:10:59;;;;;;;2.30;1.25;;;28.20;76.80;;;;;;10551188;28;20664;-33
2023/08/25 04:16:04;;;;;;;1.50;1.00;;;28.10;76.80;;;;;;10548658;28;20070;-33
2023/08/25 04:21:05;;;;;;;1.85;1.10;;;28.10;76.90;;;;;;10549887;28;20054;-33
2023/08/25 04:26:07;;;;;;;1.23;0.88;;;28.10;76.80;;;;;;10524215;28;20118;-33
2023/08/25 04:31:10;;;;;;;2.03;1.27;;;28.10;76.80;;;;;;10508623;28;20650;-35
2023/08/25 04:36:13;;;;;;;1.63;1.33;;;28.10;76.80;;;;;;10535082;28;20123;-33
2023/08/25 04:41:15;;;;;;;4.35;1.25;;;28.10;76.90;;;;;;10533956;28;20048;-33
2023/08/25 04:46:18;;;;;;;2.95;1.30;;;28.10;77.00;;;;;;10514707;28;20075;-33
2023/08/25 04:51:20;;;;;;;2.63;1.10;;;28.00;76.80;;;;;;10517044;28;20132;-34
2023/08/25 04:56:22;;;;;;;4.22;1.00;;;28.10;76.90;;;;;;10531404;28;20044;-33
2023/08/25 05:01:25;;;;;;;2.97;1.38;;;28.10;76.90;;;;;;10530892;28;20047;-32
2023/08/25 05:06:27;;;;;;;0.90;0.80;;;28.10;76.60;;;;;;10529010;28;20048;-33
2023/08/25 05:11:28;;;;;;;1.98;1.13;;;28.10;76.80;;;;;;10529045;28;20105;-33
2023/08/25 05:16:32;;;;;;;1.67;1.02;;;28.10;76.60;;;;;;10535626;28;20087;-32
2023/08/25 05:21:33;;;;;;;1.02;0.93;;;28.10;76.80;;;;;;10527759;28;20676;-33
2023/08/25 05:26:35;;;;;;;2.15;1.40;;;28.00;76.70;;;;;;10535694;28;20047;-34
2023/08/25 05:31:38;;;;;;;2.47;1.02;;;28.00;76.80;;;;;;10514258;28;20101;-35
2023/08/25 05:36:40;;;;;;;1.77;1.00;;;28.00;76.70;;;;;;10527472;28;20687;-35
2023/08/25 05:41:42;;;;;;;1.00;0.90;;;28.00;76.90;;;;;;10529871;28;20135;-33
2023/08/25 05:46:47;;;;;;;2.47;1.30;;;28.00;77.00;;;;;;10522065;28;20690;-33
2023/08/25 05:51:51;;;;;;;3.15;1.80;;;28.00;76.90;;;;;;10526298;28;20108;-34
2023/08/25 05:56:53;;;;;;;2.15;1.10;;;28.00;77.00;;;;;;10522094;28;20116;-36
2023/08/25 06:01:56;;;;;;;3.70;1.27;;;28.00;77.10;;;;;;10512211;28;20071;-35
2023/08/25 06:06:58;;;;;;;3.20;1.30;;;28.00;77.20;;;;;;10530341;28;20123;-32
2023/08/25 06:12:00;;;;;;;2.35;1.00;;;28.00;77.20;;;;;;10528968;28;20131;-35
2023/08/25 06:17:04;;;;;;;3.58;2.08;;;28.00;77.20;;;;;;10525422;28;20055;-33
2023/08/25 06:22:06;;;;;;;4.88;1.45;;;27.80;77.60;;;;;;10506591;28;20688;-34
2023/08/25 06:27:08;;;;;;;4.40;1.48;;;27.60;80.20;;;;;;10526576;28;20450;-33
2023/08/25 06:32:14;;;;;;;2.70;1.25;;;27.80;78.10;;;;;;10523435;28;20538;-33
2023/08/25 06:37:16;;;;;;;3.67;1.90;;;27.90;77.90;;;;;;10523052;28;20048;-34
2023/08/25 06:42:17;;;;;;;4.03;2.10;;;27.90;78.00;;;;;;10522152;28;20032;-33
2023/08/25 06:47:21;;;;;;;7.22;4.32;;;27.70;78.80;;;;;;10518585;28;20046;-34
2023/08/25 06:52:23;;;;;;;6.13;2.92;;;27.10;82.60;;;;;;10510458;28;20071;-35
2023/08/25 06:57:25;;;;;;;5.20;2.35;;;26.90;83.40;;;;;;10504267;28;20072;-33
2023/08/25 07:02:28;;;;;;;6.00;2.50;;;27.50;80.50;;;;;;10506647;28;20317;-34
2023/08/25 07:07:31;;;;;;;6.00;2.58;;;27.80;77.90;;;;;;10512406;28;20044;-35
2023/08/25 07:12:32;;;;;;;4.75;2.53;;;27.90;77.30;;;;;;10522933;28;20455;-32
2023/08/25 07:17:36;;;;;;;4.78;2.58;;;27.90;77.30;;;;;;10508656;28;20124;-35
2023/08/25 07:22:38;;;;;;;3.30;2.28;;;28.00;77.30;;;;;;10520025;28;20064;-35
2023/08/25 07:27:40;;;;;;;7.50;3.42;;;27.40;80.00;;;;;;10524292;28;20063;-35
2023/08/25 07:32:43;;;;;;;7.43;2.95;;;27.70;78.70;;;;;;10510814;28;20048;-33
2023/08/25 07:37:45;;;;;;;4.88;2.60;;;27.80;78.70;;;;;;10527341;28;20467;-34
2023/08/25 07:42:48;;;;;;;4.25;1.90;;;27.90;77.70;;;;;;10529262;28;20036;-37
2023/08/25 07:47:51;;;;;;;4.63;2.40;;;27.90;77.50;;;;;;10521975;28;20081;-33
2023/08/25 07:52:53;;;;;;;4.05;2.28;;;27.50;78.80;;;;;;10523105;28;20032;-33
2023/08/25 07:57:55;;;;;;;7.18;3.05;;;27.80;76.80;;;;;;10526407;28;20123;-35
2023/08/25 08:02:59;;;;;;;7.93;2.08;;;27.50;77.50;;;;;;10531793;28;20036;-33
2023/08/25 08:08:00;;;;;;;10.13;2.78;;;27.40;78.30;;;;;;10530346;28;20052;-34
2023/08/25 08:13:03;;;;;;;6.40;2.10;;;27.90;74.70;;;;;;10523461;28;20466;-35
2023/08/25 08:18:06;;;;;;;6.97;3.28;;;27.70;77.30;;;;;;10526191;28;20070;-38
2023/08/25 08:23:08;;;;;;;5.05;2.15;;;27.70;77.10;;;;;;10510280;28;20040;-33
2023/08/25 08:28:10;;;;;;;5.35;2.00;;;27.80;77.40;;;;;;10526804;28;20588;-33
2023/08/25 08:33:13;;;;;;;6.28;2.63;;;28.00;76.30;;;;;;10533870;28;20087;-33
2023/08/25 08:38:18;;;;;;;4.93;1.95;;;28.10;75.30;;;;;;10534936;28;20852;-36
2023/08/25 08:43:20;;;;;;;4.03;2.05;;;28.20;75.00;;;;;;10527764;28;20122;-34
2023/08/25 08:48:23;;;;;;;8.48;2.50;;;28.20;74.90;;;;;;10515967;28;20070;-34
2023/08/25 08:53:26;;;;;;;13.57;5.97;;;28.20;74.80;;;;;;10535002;28;20075;-36
2023/08/25 08:58:28;;;;;;;23.83;10.07;;;28.10;74.60;;;;;;10533115;28;20036;-33
2023/08/25 09:03:34;;;;;;;3.80;2.33;;;27.20;76.20;;;;;;10514118;28;20045;-33
2023/08/25 09:08:36;;;;;;;4.45;2.20;;;28.20;75.20;;;;;;10522084;28;20055;-36
2023/08/25 09:13:38;;;;;;;6.50;3.00;;;28.00;76.20;;;;;;10523761;28;20052;-33
2023/08/25 09:18:41;;;;;;;5.90;3.85;;;27.70;77.10;;;;;;10530769;28;20067;-36
2023/08/25 09:23:54;;;;;;;3.42;2.63;;;26.80;82.00;;;;;;10534363;28;20067;-34
2023/08/25 09:28:59;;;;;;;5.57;2.50;;;28.10;75.50;;;;;;10519810;28;20425;-34
2023/08/25 09:34:03;;;;;;;4.88;2.38;;;28.20;74.70;;;;;;10515536;28;20128;-33
2023/08/25 09:39:07;;;;;;;8.65;3.65;;;28.40;73.80;;;;;;10517584;28;20067;-33
2023/08/25 09:44:09;;;;;;;6.88;2.80;;;28.20;73.70;;;;;;10529045;28;20058;-33
2023/08/25 09:49:14;;;;;;;7.20;2.53;;;28.50;73.10;;;;;;10531969;28;20044;-35
2023/08/25 09:54:17;;;;;;;5.00;2.45;;;27.90;75.70;;;;;;10523288;28;20468;-32
2023/08/25 09:59:19;;;;;;;5.15;3.10;;;28.20;74.50;;;;;;10519967;28;20067;-34
2023/08/25 10:04:23;;;;;;;5.60;2.72;;;28.20;73.70;;;;;;10522729;28;20047;-34
2023/08/25 10:09:26;;;;;;;6.88;4.90;;;28.40;73.20;;;;;;10515301;28;20047;-35
2023/08/25 10:14:30;;;;;;;6.65;2.92;;;28.10;73.90;;;;;;10508450;28;20477;-34
2023/08/25 10:19:38;;;;;;;15.93;5.93;;;28.10;74.00;;;;;;10533097;28;20071;-33
2023/08/25 10:24:41;;;;;;;6.72;2.80;;;26.80;81.70;;;;;;10512754;28;20050;-34
2023/08/25 10:29:43;;;;;;;5.90;2.90;;;28.20;74.80;;;;;;10510766;28;20047;-33
2023/08/25 10:34:52;;;;;;;6.43;3.05;;;27.90;75.60;;;;;;10522281;28;20059;-33
2023/08/25 10:39:57;;;;;;;8.98;3.22;;;28.20;74.70;;;;;;10519368;28;20439;-32
2023/08/25 10:45:04;;;;;;;10.93;3.70;;;28.20;75.40;;;;;;10525149;28;20139;-33
2023/08/25 10:50:08;;;;;;;7.47;5.15;;;27.80;76.90;;;;;;10523398;28;20435;-36
2023/08/25 10:55:26;;;;;;;3.95;2.80;;;28.10;75.50;;;;;;10499036;28;20051;-33
2023/08/25 11:00:30;;;;;;;13.13;5.82;;;28.20;74.90;;;;;;10516993;28;20075;-32
2023/08/25 11:05:41;;;;;;;11.07;4.47;;;27.60;77.50;;;;;;10516579;28;20081;-34
2023/08/25 11:10:43;;;;;;;;;;;27.20;81.70;;;;;;10520516;28;20040;-33
2023/08/25 11:15:45;;;;;;;9.75;4.43;;;28.30;75.60;;;;;;10505598;28;20010;-34
2023/08/25 11:20:49;;;;;;;6.38;2.65;;;27.70;77.20;;;;;;10501613;28;20051;-32
2023/08/25 11:25:51;;;;;;;8.07;3.70;;;27.80;78.10;;;;;;10507569;28;20040;-35
2023/08/25 11:30:53;;;;;;;9.05;5.05;;;27.60;79.50;;;;;;10526502;28;20472;-34
2023/08/25 11:35:56;;;;;;;13.90;8.35;;;26.70;84.30;;;;;;10528034;28;20043;-35
2023/08/25 11:40:59;;;;;;;3.35;2.70;;;24.90;91.30;;;;;;10515425;28;20060;-34
2023/08/25 11:46:01;;;;;;;13.15;5.65;;;26.60;90.00;;;;;;10527284;28;20079;-34
2023/08/25 11:51:04;;;;;;;11.70;5.70;;;26.10;86.80;;;;;;10534694;28;20068;-35
2023/08/25 11:56:07;;;;;;;11.02;6.07;;;25.60;91.40;;;;;;10525350;28;20043;-38
2023/08/25 12:01:11;;;;;;;5.00;2.65;;;25.80;90.20;;;;;;10531445;28;20043;-36
2023/08/25 12:06:15;;;;;;;4.10;2.67;;;26.80;86.20;;;;;;10525126;28;20055;-35
2023/08/25 12:11:17;;;;;;;3.92;2.25;;;27.70;78.70;;;;;;10528165;28;21173;-35
2023/08/25 12:16:19;;;;;;;2.50;2.00;;;28.20;76.40;;;;;;10527912;28;20424;-37
2023/08/25 12:21:23;;;;;;;7.10;4.20;;;27.90;78.80;;;;;;10531999;28;20097;-42
2023/08/25 12:26:26;;;;;;;3.38;2.75;;;26.70;83.80;;;;;;10515583;28;20059;-46
2023/08/25 12:31:28;;;;;;;5.50;3.35;;;26.70;86.90;;;;;;10534181;28;20078;-41
2023/08/25 12:36:33;;;;;;;3.65;2.10;;;26.60;85.50;;;;;;10545504;28;20079;-42
2023/08/25 12:41:36;;;;;;;2.72;2.47;;;28.10;77.90;;;;;;10541661;28;20528;-35
2023/08/25 12:46:38;;;;;;;3.45;2.58;;;26.90;83.40;;;;;;10543396;28;20052;-34
2023/08/25 12:51:41;;;;;;;3.40;2.60;;;27.40;82.10;;;;;;10535340;28;20684;-35
2023/08/25 12:56:43;;;;;;;15.82;4.88;;;27.60;79.20;;;;;;10528439;28;20151;-36
2023/08/25 13:01:44;;;;;;;3.83;2.28;;;26.60;80.90;;;;;;10525644;28;20121;-35
2023/08/25 13:06:48;;;;;;;2.13;1.90;;;28.40;75.40;;;;;;10523397;28;20437;-39
2023/08/25 13:11:50;;;;;;;4.07;2.15;;;28.20;75.70;;;;;;10523301;28;20077;-36
2023/08/25 13:16:51;;;;;;;5.05;2.55;;;28.50;74.40;;;;;;10532187;28;20652;-37
2023/08/25 13:21:55;;;;;;;5.50;3.20;;;28.70;72.70;;;;;;10534945;28;20079;-37
2023/08/25 13:26:58;;;;;;;4.65;2.50;;;28.00;73.30;;;;;;10541724;28;20040;-38
2023/08/25 13:32:00;;;;;;;2.17;1.88;;;28.20;74.80;;;;;;10542306;28;20047;-42
2023/08/25 13:37:03;;;;;;;4.10;2.40;;;28.10;75.10;;;;;;10540497;28;20510;-35
2023/08/25 13:42:06;;;;;;;4.88;2.55;;;28.50;73.20;;;;;;10533149;28;20050;-41
2023/08/25 13:47:08;;;;;;;3.92;2.55;;;27.90;77.60;;;;;;10529544;28;20044;-33
2023/08/25 13:52:11;;;;;;;7.75;3.08;;;26.00;74.50;;;;;;10513025;28;20075;-37
2023/08/25 13:57:13;;;;;;;5.65;3.03;;;25.40;80.10;;;;;;10494609;28;20469;-37
2023/08/25 14:07:40;;;;;;;4.72;2.55;;;27.30;78.40;;;;;;10520324;28;20515;-36
2023/08/25 14:12:43;;;;;;;4.63;2.72;;;27.00;78.80;;;;;;10509713;28;20045;-33
2023/08/25 14:17:45;;;;;;;6.53;2.92;;;27.30;70.30;;;;;;10514494;28;20036;-32
2023/08/25 14:22:48;;;;;;;6.72;2.17;;;26.60;73.90;;;;;;10514305;28;20117;-30
2023/08/25 14:27:50;;;;;;;3.85;1.90;;;27.40;79.30;;;;;;10512515;28;20040;-35
2023/08/25 14:32:52;;;;;;;4.00;2.13;;;27.90;74.70;;;;;;10517569;28;20502;-36
2023/08/25 14:37:56;;;;;;;3.38;1.30;;;27.80;74.50;;;;;;10527166;28;20101;-41
2023/08/25 14:42:58;;;;;;;3.13;1.85;;;27.30;74.40;;;;;;10529726;28;20157;-33
2023/08/25 14:48:01;;;;;;;3.17;1.60;;;27.90;72.80;;;;;;10522518;28;20036;-30
2023/08/25 14:53:04;;;;;;;3.13;1.40;;;28.00;71.50;;;;;;10512161;28;20471;-33
2023/08/25 14:58:06;;;;;;;2.55;1.42;;;28.10;73.40;;;;;;10516751;28;20063;-30
2023/08/25 15:03:08;;;;;;;2.15;1.20;;;28.70;70.70;;;;;;10514057;28;20066;-30
2023/08/25 15:08:12;;;;;;;6.30;2.00;;;29.00;69.30;;;;;;10513326;28;20040;-30
2023/08/25 15:13:14;;;;;;;3.88;1.23;;;28.60;70.90;;;;;;10520295;28;20064;-32
2023/08/25 15:18:16;;;;;;;3.13;1.17;;;28.90;69.20;;;;;;10523518;28;20040;-30
2023/08/25 15:23:19;;;;;;;4.03;1.42;;;28.90;69.00;;;;;;10522157;28;20040;-36
2023/08/25 15:28:20;;;;;;;5.82;1.48;;;29.10;68.20;;;;;;10522639;28;20449;-35
2023/08/25 15:33:22;;;;;;;2.67;1.00;;;28.90;68.60;;;;;;10517858;28;20403;-37
2023/08/25 15:38:26;;;;;;;4.75;1.13;;;28.70;69.20;;;;;;10523132;28;20464;-38
2023/08/25 15:43:27;;;;;;;5.88;1.10;;;28.60;69.10;;;;;;10523363;28;20052;-33
2023/08/25 15:48:29;;;;;;;4.35;1.15;;;28.20;69.40;;;;;;10531351;28;20040;-30
2023/08/25 15:53:33;;;;;;;6.30;1.10;;;28.50;69.20;;;;;;10526824;28;20084;-34
2023/08/25 15:58:35;;;;;;;2.10;0.90;;;27.90;70.80;;;;;;10524388;28;20067;-34
2023/08/25 16:03:36;;;;;;;2.90;0.90;;;28.70;67.80;;;;;;10531444;28;20064;-33
2023/08/25 16:08:40;;;;;;;6.82;2.25;;;28.60;67.10;;;;;;10511272;28;20032;-35
2023/08/25 16:13:42;;;;;;;7.82;3.88;;;29.00;66.80;;;;;;10516569;28;20080;-31
2023/08/25 16:18:45;;;;;;;11.88;4.70;;;28.80;66.90;;;;;;10517406;28;20047;-35
2023/08/25 16:23:49;;;;;;;11.57;5.15;;;29.00;66.50;;;;;;10524520;28;20036;-32
2023/08/25 16:28:51;;;;;;;12.02;4.90;;;28.80;66.30;;;;;;10520926;28;20140;-37
2023/08/25 16:33:53;;;;;;;9.27;3.25;;;28.90;65.10;;;;;;10525855;28;20473;-36
2023/08/25 16:38:56;;;;;;;11.43;3.47;;;28.80;66.30;;;;;;10532533;28;20086;-36
2023/08/25 16:43:58;;;;;;;8.20;2.90;;;28.90;65.90;;;;;;10531385;28;20036;-33
2023/08/25 16:48:59;;;;;;;9.82;2.53;;;29.10;64.40;;;;;;10530292;28;20127;-32
2023/08/25 16:54:03;;;;;;;5.75;2.22;;;29.00;65.00;;;;;;10530751;28;20080;-30
2023/08/25 16:59:07;;;;;;;3.78;1.05;;;29.00;64.50;;;;;;10503763;28;20066;-31
2023/08/25 17:04:08;;;;;;;3.42;1.55;;;28.60;63.70;;;;;;10523880;28;20040;-34
2023/08/25 17:09:12;;;;;;;6.43;1.00;;;28.90;65.00;;;;;;10529173;28;20044;-32
2023/08/25 17:14:14;;;;;;;3.28;1.05;;;29.20;64.30;;;;;;10520503;28;20105;-36
2023/08/25 17:19:16;;;;;;;3.22;1.00;;;29.30;64.00;;;;;;10527112;28;20135;-31
2023/08/25 17:24:19;;;;;;;1.90;1.05;;;29.20;63.90;;;;;;10517290;28;20044;-38
2023/08/25 17:29:23;;;;;;;4.07;0.80;;;29.30;63.70;;;;;;10544862;28;20521;-31
2023/08/25 17:34:24;;;;;;;3.05;0.70;;;29.30;63.30;;;;;;10531194;28;20050;-33
2023/08/25 17:39:27;;;;;;;2.42;1.25;;;29.30;63.00;;;;;;10524373;28;20049;-34
2023/08/25 17:44:29;;;;;;;2.08;0.55;;;29.10;63.70;;;;;;10534575;28;20140;-35
2023/08/25 17:49:31;;;;;;;2.30;1.00;;;29.30;63.10;;;;;;10516845;28;20135;-32
2023/08/25 17:54:38;;;;;;;2.70;0.80;;;29.10;62.70;;;;;;10527431;28;20157;-34
2023/08/25 17:59:42;;;;;;;1.83;0.70;;;28.60;65.80;;;;;;10534501;28;20040;-31
2023/08/25 18:04:44;;;;;;;3.33;1.10;;;29.20;63.80;;;;;;10515051;28;20048;-31
2023/08/25 18:09:47;;;;;;;1.95;0.75;;;29.20;63.10;;;;;;10529289;28;20050;-34
2023/08/25 18:14:49;;;;;;;1.52;0.75;;;29.20;62.70;;;;;;10527915;28;20071;-31
2023/08/25 18:19:51;;;;;;;3.08;0.75;;;29.20;62.60;;;;;;10521362;28;20140;-38
2023/08/25 18:24:54;;;;;;;2.67;0.90;;;29.20;62.20;;;;;;10523953;28;20051;-32
2023/08/25 18:29:56;;;;;;;3.22;1.00;;;29.10;62.30;;;;;;10524518;28;20089;-34
2023/08/25 18:34:58;;;;;;;2.25;1.00;;;29.10;62.00;;;;;;10519723;28;20052;-30
2023/08/25 18:40:01;;;;;;;2.72;0.80;;;29.10;61.80;;;;;;10524761;28;20044;-30
2023/08/25 18:45:03;;;;;;;2.55;0.70;;;29.00;61.90;;;;;;10523298;28;20073;-38
2023/08/25 18:50:06;;;;;;;0.93;0.60;;;29.00;61.80;;;;;;10527680;28;20044;-34
2023/08/25 18:55:10;;;;;;;1.98;0.70;;;29.00;61.50;;;;;;10523303;28;20097;-33
2023/08/25 19:00:12;;;;;;;2.47;0.65;;;29.00;61.50;;;;;;10523876;28;21222;-31
2023/08/25 19:05:16;;;;;;;2.28;0.73;;;28.90;61.60;;;;;;10528336;28;20048;-30
2023/08/25 19:10:20;;;;;;;6.85;1.13;;;28.90;61.50;;;;;;10538960;28;20076;-33
2023/08/25 19:15:22;;;;;;;5.15;1.00;;;28.90;61.40;;;;;;10522635;28;20762;-35
2023/08/25 19:20:24;;;;;;;5.25;1.10;;;28.80;61.60;;;;;;10519054;28;20399;-31
2023/08/25 19:25:27;;;;;;;2.30;0.75;;;28.80;61.60;;;;;;10516937;28;20040;-32
2023/08/25 19:30:29;;;;;;;3.30;0.70;;;28.70;61.50;;;;;;10517168;28;20040;-34
2023/08/25 19:35:33;;;;;;;3.38;0.93;;;28.70;61.60;;;;;;10529674;28;20131;-31
2023/08/25 19:40:36;;;;;;;7.00;1.13;;;28.70;61.80;;;;;;10525573;28;20044;-36
2023/08/25 19:45:38;;;;;;;3.25;1.20;;;28.70;61.70;;;;;;10525799;28;20067;-30
2023/08/25 19:50:40;;;;;;;1.80;0.63;;;28.60;61.60;;;;;;10515988;28;20457;-36
2023/08/25 19:55:43;;;;;;;2.33;0.80;;;28.60;61.50;;;;;;10527216;28;20529;-33
2023/08/25 20:00:45;;;;;;;4.90;0.90;;;28.60;61.50;;;;;;10534761;28;20540;-37
2023/08/25 20:06:00;;;;;;;9.00;1.00;;;28.60;61.50;;;;;;10527716;28;20052;-33
2023/08/25 20:11:04;;;;;;;4.70;0.95;;;28.50;61.60;;;;;;10527374;28;20113;-33
2023/08/25 20:16:07;;;;;;;4.15;0.90;;;28.50;61.60;;;;;;10519922;28;20656;-31
2023/08/25 20:21:09;;;;;;;4.63;0.90;;;28.50;61.60;;;;;;10530416;28;20036;-31
2023/08/25 20:26:12;;;;;;;2.42;0.90;;;28.50;61.60;;;;;;10528774;28;20037;-31
2023/08/25 20:31:14;;;;;;;3.47;1.00;;;28.40;61.50;;;;;;10527517;28;20032;-34
2023/08/25 20:36:15;;;;;;;4.45;1.00;;;28.40;62.40;;;;;;10532600;28;20138;-37
2023/08/25 20:41:19;;;;;;;3.25;0.90;;;28.30;61.70;;;;;;10529689;28;20067;-44
2023/08/25 20:46:21;;;;;;;3.03;0.80;;;28.30;61.70;;;;;;10521674;28;20040;-36
2023/08/25 20:51:25;;;;;;;3.00;0.80;;;28.30;61.60;;;;;;10525214;28;20136;-33
2023/08/25 20:56:29;;;;;;;3.55;0.98;;;28.30;61.60;;;;;;10526156;28;20047;-37
2023/08/25 21:01:30;;;;;;;2.92;0.82;;;28.20;61.90;;;;;;10514899;28;20082;-32
2023/08/25 21:06:33;;;;;;;5.50;1.13;;;28.20;61.70;;;;;;10504903;28;20033;-35
2023/08/25 21:11:36;;;;;;;2.33;0.82;;;28.20;61.70;;;;;;10507337;28;20056;-33
2023/08/25 21:16:39;;;;;;;3.90;0.95;;;28.20;61.80;;;;;;10515066;28;20439;-34
2023/08/25 21:21:41;;;;;;;7.68;0.77;;;28.00;62.30;;;;;;10529910;28;20456;-30
2023/08/25 21:26:44;;;;;;;2.38;0.70;;;28.10;62.20;;;;;;10527529;28;20477;-33
2023/08/25 21:31:48;;;;;;;2.05;0.80;;;28.10;62.30;;;;;;10518986;28;20132;-33
2023/08/25 21:36:50;;;;;;;4.28;1.10;;;28.00;62.20;;;;;;10521232;28;20067;-32
2023/08/25 21:41:53;;;;;;;3.03;0.63;;;28.00;62.30;;;;;;10534108;28;20044;-32
2023/08/25 21:46:55;;;;;;;2.65;0.88;;;28.00;62.50;;;;;;10509958;28;20044;-35
2023/08/25 21:51:58;;;;;;;1.90;1.00;;;27.80;63.20;;;;;;10532381;28;20040;-35
2023/08/25 21:57:01;;;;;;;1.25;0.60;;;27.90;62.50;;;;;;10530893;28;20384;-32
2023/08/25 22:02:03;;;;;;;0.77;0.50;;;27.90;62.70;;;;;;10518924;28;20068;-39
2023/08/25 22:07:05;;;;;;;3.55;0.90;;;27.90;62.70;;;;;;10529051;28;20137;-31
2023/08/25 22:12:08;;;;;;;3.70;0.60;;;27.90;62.70;;;;;;10513919;28;20071;-33
2023/08/25 22:17:10;;;;;;;1.00;0.50;;;27.80;62.70;;;;;;10530324;28;20047;-32
2023/08/25 22:22:12;;;;;;;1.90;0.80;;;27.80;62.80;;;;;;10527406;28;20131;-32
2023/08/25 22:27:15;;;;;;;3.53;0.82;;;27.80;62.90;;;;;;10507164;28;20125;-31
2023/08/25 22:32:17;;;;;;;1.45;0.40;;;27.80;62.90;;;;;;10525146;28;20043;-35
2023/08/25 22:37:19;;;;;;;0.70;0.47;;;27.70;62.90;;;;;;10528714;28;20413;-32
2023/08/25 22:42:23;;;;;;;2.10;0.60;;;27.80;63.00;;;;;;10528025;28;20044;-39
2023/08/25 22:47:25;;;;;;;2.65;0.73;;;27.70;63.00;;;;;;10527908;28;20277;-33
2023/08/25 22:52:27;;;;;;;1.60;0.73;;;27.70;63.00;;;;;;10524727;28;20425;-31
2023/08/25 22:57:30;;;;;;;0.70;0.60;;;27.70;63.10;;;;;;10530822;28;20048;-34
2023/08/25 23:02:31;;;;;;;0.95;0.70;;;27.60;63.20;;;;;;10531141;28;20036;-39
2023/08/25 23:07:33;;;;;;;2.05;0.80;;;27.60;63.20;;;;;;10527388;28;20040;-34
2023/08/25 23:12:36;;;;;;;1.25;0.60;;;27.60;63.10;;;;;;10527280;28;20074;-38
2023/08/25 23:17:38;;;;;;;1.63;0.73;;;27.60;63.20;;;;;;10508926;28;20087;-39
2023/08/25 23:22:40;;;;;;;1.50;0.80;;;27.60;63.30;;;;;;10512987;28;20135;-34
2023/08/25 23:27:43;;;;;;;0.55;0.50;;;27.60;63.30;;;;;;10514643;28;20439;-33
2023/08/25 23:32:45;;;;;;;1.40;0.47;;;27.50;63.30;;;;;;10511331;28;20053;-35
2023/08/25 23:37:47;;;;;;;3.03;0.70;;;27.10;64.60;;;;;;10517538;28;20040;-35
2023/08/25 23:42:50;;;;;;;1.30;0.80;;;27.30;63.90;;;;;;10519999;28;20036;-31
2023/08/25 23:47:53;;;;;;;1.80;1.20;;;27.40;63.70;;;;;;10521361;28;20040;-41
2023/08/25 23:52:54;;;;;;;2.53;0.70;;;27.40;63.70;;;;;;10519509;28;20512;-37
2023/08/25 23:57:57;;;;;;;2.97;0.70;;;27.30;63.70;;;;;;10526762;28;20079;-37
